»·PEaware :: N114HT L52-L88

N114HT :: L52-L88

FLIGHT INFORMATION

Flight Status: Arrived
Operator: Privately registered:
United States
More flights under this callsign
Pilot: Heigo T. (17565)
Aircraft: CESSNA 182 SKYLANE
(C182)
More flights by this aircraft type
Origin: L52 Oceano Co
United States
Destination: L88 New Cuyama
United States
More flights between these airports :: More routes between these airports
Route: DCT
File this flight plan on PilotEdge
Remarks:
Altitude:
(Current/Filed)
5,500ft
Speed:
(Current/Filed)
130kts
Departed: 05-Jan-18 01:00 PM
Arrived: 05-Jan-18 01:28 PM
Distance/Time
Traveled:
47nm/0:28
Distance/Time
To Go:
Arrived

Flight Plot

Page will automatically refresh every two minutes.


Map Options




Map Legend


Flown Route
Filed Route
Departure Airport
Arrival Airport
Navaid (VOR, NDB)
Fix

Horizontal Profiles

Position Reports

Time Latitude Longitude Heading Altitude Ground
Speed
05-Jan-18 12:59 35.103282 -120.624294 209 17ft 0kts
05-Jan-18 13:00 35.103279 -120.624296 209 17ft 0kts
05-Jan-18 13:01 35.103277 -120.624298 209 17ft 0kts
05-Jan-18 13:02 35.103305 -120.624686 305 17ft 5kts
05-Jan-18 13:03 35.103520 -120.625275 204 17ft 0kts
05-Jan-18 13:04 35.103513 -120.625279 204 17ft 0kts
05-Jan-18 13:05 35.103254 -120.625436 180 17ft 4kts
05-Jan-18 13:06 35.096993 -120.613939 125 367ft 79kts
05-Jan-18 13:07 35.076798 -120.592891 157 1303ft 106kts
05-Jan-18 13:08 35.046807 -120.574757 149 1973ft 128kts
05-Jan-18 13:09 35.021733 -120.548870 132 2658ft 110kts
05-Jan-18 13:10 35.003182 -120.519923 122 3337ft 106kts
05-Jan-18 13:11 34.992655 -120.486832 104 4060ft 105kts
05-Jan-18 13:12 34.988959 -120.450762 93 4769ft 110kts
05-Jan-18 13:13 34.991547 -120.413058 83 5427ft 115kts
05-Jan-18 13:14 34.997521 -120.370091 83 5449ft 138kts
05-Jan-18 13:15 35.004131 -120.322444 83 5444ft 142kts
05-Jan-18 13:16 35.010626 -120.275320 82 5444ft 139kts
05-Jan-18 13:17 35.017046 -120.228748 82 5450ft 140kts
05-Jan-18 13:18 35.033580 -120.185924 48 5444ft 144kts
05-Jan-18 13:19 35.060941 -120.150989 48 5441ft 141kts
05-Jan-18 13:20 35.085325 -120.113733 58 5445ft 140kts
05-Jan-18 13:21 35.090642 -120.067489 103 5446ft 138kts
05-Jan-18 13:22 35.078702 -120.023373 113 5442ft 136kts
05-Jan-18 13:23 35.063612 -119.980934 123 5439ft 137kts
05-Jan-18 13:24 35.043812 -119.940586 124 5436ft 137kts
05-Jan-18 13:25 35.024540 -119.901115 124 5436ft 135kts
05-Jan-18 13:26 35.004768 -119.860725 124 5428ft 138kts
05-Jan-18 13:27 34.984275 -119.819007 124 4909ft 137kts
05-Jan-18 13:28 34.965978 -119.781238 124 4359ft 125kts
05-Jan-18 13:29 34.948093 -119.744285 124 3867ft 126kts
05-Jan-18 13:30 34.930549 -119.708004 124 3363ft 119kts
05-Jan-18 13:31 34.918663 -119.675166 116 3240ft 93kts
05-Jan-18 13:32 34.922288 -119.648500 22 3217ft 86kts
05-Jan-18 13:33 34.934185 -119.669530 289 2810ft 88kts
05-Jan-18 13:34 34.941963 -119.690532 298 2206ft 11kts
05-Jan-18 13:35 34.943119 -119.691045 16 2206ft 6kts
05-Jan-18 13:36 34.943153 -119.690836 204 2206ft 0kts
05-Jan-18 13:37 34.943153 -119.690836 204 2206ft 0kts
05-Jan-18 13:38 34.943153 -119.690836 204 2206ft 0kts
05-Jan-18 13:39 34.943153 -119.690836 204 2206ft 0kts
05-Jan-18 13:40 34.943153 -119.690836 204 2206ft 0kts
05-Jan-18 13:41 34.943153 -119.690836 204 2206ft 0kts
05-Jan-18 13:42 34.943153 -119.690836 204 2206ft 0kts
05-Jan-18 13:43 34.943153 -119.690836 204 2206ft 0kts
05-Jan-18 13:44 34.943153 -119.690836 204 2206ft 0kts
05-Jan-18 13:45 34.943153 -119.690836 204 2206ft 0kts
05-Jan-18 13:46 34.943153 -119.690836 204 2206ft 0kts
05-Jan-18 13:47 34.943153 -119.690836 204 2206ft 0kts
05-Jan-18 13:48 34.943153 -119.690836 204 2206ft 0kts
05-Jan-18 13:49 34.943153 -119.690836 204 2206ft 0kts

Navigation Log

Ident Type
Flight plan parsing failed, navigation log unavailable